Terminal Aerodrome Forecast
Issued by NWS Norman, OK

Current Version | Previous Version | Text Only | Print | Product List | Glossary On
Versions: 1 2 3 4 5 6 7 8 9 10 11 12 13 14 15 16 17 18 19 20 21 22 23 24 25 26
000
FTUS44 KOUN 150525
TAFOKC
TAF
KOKC 150525Z 1506/1606 17009KT P6SM VCSH SCT060 BKN120
      TEMPO 1506/1510 -RA
     FM151500 21012KT P6SM BKN080
     FM152000 20010KT P6SM SCT040 BKN080 PROB30 1520/1524 -SHRA
     FM160100 17006KT P6SM BKN060=

USA.gov is the U.S. government's official web portal to all federal, state and local government web resources and services.